sensor_id;sensor_type;location;lat;lon;timestamp;pressure;altitude;pressure_sealevel;temperature;humidity
76553;BME280;65395;53.168;18.156;2024-01-16T00:01:00;99173.90;;;-2.96;65.45
76553;BME280;65395;53.168;18.156;2024-01-16T00:03:43;99183.89;;;-3.01;65.26
76553;BME280;65395;53.168;18.156;2024-01-16T00:06:11;99181.74;;;-3.06;65.59
76553;BME280;65395;53.168;18.156;2024-01-16T00:08:37;99188.89;;;-3.12;64.53
76553;BME280;65395;53.168;18.156;2024-01-16T00:11:05;99194.82;;;-3.18;64.25
76553;BME280;65395;53.168;18.156;2024-01-16T00:13:32;99197.67;;;-3.23;65.24
76553;BME280;65395;53.168;18.156;2024-01-16T00:16:02;99207.98;;;-3.29;65.35
76553;BME280;65395;53.168;18.156;2024-01-16T00:18:30;99212.17;;;-3.33;65.53
76553;BME280;65395;53.168;18.156;2024-01-16T00:20:57;99210.98;;;-3.36;65.74
76553;BME280;65395;53.168;18.156;2024-01-16T00:23:24;99213.38;;;-3.39;65.47
76553;BME280;65395;53.168;18.156;2024-01-16T00:25:51;99214.98;;;-3.40;66.33
76553;BME280;65395;53.168;18.156;2024-01-16T00:28:18;99222.36;;;-3.42;66.39
76553;BME280;65395;53.168;18.156;2024-01-16T00:30:46;99229.42;;;-3.45;66.13
76553;BME280;65395;53.168;18.156;2024-01-16T00:33:13;99241.52;;;-3.47;65.62
76553;BME280;65395;53.168;18.156;2024-01-16T00:35:41;99236.75;;;-3.49;66.13
76553;BME280;65395;53.168;18.156;2024-01-16T00:38:08;99238.44;;;-3.50;66.78
76553;BME280;65395;53.168;18.156;2024-01-16T00:40:35;99246.03;;;-3.51;66.92
76553;BME280;65395;53.168;18.156;2024-01-16T00:43:01;99252.89;;;-3.51;66.98
76553;BME280;65395;53.168;18.156;2024-01-16T00:45:28;99254.35;;;-3.49;67.33
76553;BME280;65395;53.168;18.156;2024-01-16T00:47:55;99259.63;;;-3.51;67.47
76553;BME280;65395;53.168;18.156;2024-01-16T00:50:22;99260.50;;;-3.54;67.17
76553;BME280;65395;53.168;18.156;2024-01-16T00:52:50;99255.86;;;-3.57;67.72
76553;BME280;65395;53.168;18.156;2024-01-16T00:55:17;99268.92;;;-3.60;67.91
76553;BME280;65395;53.168;18.156;2024-01-16T00:57:44;99274.90;;;-3.65;68.05
76553;BME280;65395;53.168;18.156;2024-01-16T01:00:11;99280.05;;;-3.70;67.81
76553;BME280;65395;53.168;18.156;2024-01-16T01:02:38;99282.19;;;-3.73;67.84
76553;BME280;65395;53.168;18.156;2024-01-16T01:05:06;99281.71;;;-3.76;67.68
76553;BME280;65395;53.168;18.156;2024-01-16T01:07:33;99283.46;;;-3.76;68.08
76553;BME280;65395;53.168;18.156;2024-01-16T01:10:00;99288.55;;;-3.77;68.25
76553;BME280;65395;53.168;18.156;2024-01-16T01:12:27;99293.36;;;-3.78;68.66
76553;BME280;65395;53.168;18.156;2024-01-16T01:14:54;99294.45;;;-3.80;68.77
76553;BME280;65395;53.168;18.156;2024-01-16T01:17:21;99304.30;;;-3.79;68.66
76553;BME280;65395;53.168;18.156;2024-01-16T01:19:48;99307.54;;;-3.78;68.84
76553;BME280;65395;53.168;18.156;2024-01-16T01:22:15;99315.36;;;-3.75;68.23
76553;BME280;65395;53.168;18.156;2024-01-16T01:24:42;99319.40;;;-3.72;68.39
76553;BME280;65395;53.168;18.156;2024-01-16T01:27:09;99322.30;;;-3.68;68.45
76553;BME280;65395;53.168;18.156;2024-01-16T01:29:36;99327.63;;;-3.67;68.00
76553;BME280;65395;53.168;18.156;2024-01-16T01:32:03;99325.92;;;-3.68;68.17
76553;BME280;65395;53.168;18.156;2024-01-16T01:34:30;99328.66;;;-3.70;68.37
76553;BME280;65395;53.168;18.156;2024-01-16T01:36:57;99333.33;;;-3.73;67.82
76553;BME280;65395;53.168;18.156;2024-01-16T01:39:24;99333.19;;;-3.77;68.12
76553;BME280;65395;53.168;18.156;2024-01-16T01:41:51;99337.67;;;-3.81;68.29
76553;BME280;65395;53.168;18.156;2024-01-16T01:44:18;99333.09;;;-3.86;68.25
76553;BME280;65395;53.168;18.156;2024-01-16T01:46:45;99336.08;;;-3.91;67.87
76553;BME280;65395;53.168;18.156;2024-01-16T01:49:14;99339.61;;;-3.96;68.19
76553;BME280;65395;53.168;18.156;2024-01-16T01:51:43;99348.66;;;-4.01;67.73
76553;BME280;65395;53.168;18.156;2024-01-16T01:54:11;99349.23;;;-4.05;67.43
76553;BME280;65395;53.168;18.156;2024-01-16T01:56:39;99351.05;;;-4.09;67.84
76553;BME280;65395;53.168;18.156;2024-01-16T01:59:09;99364.17;;;-4.13;67.69
76553;BME280;65395;53.168;18.156;2024-01-16T02:01:36;99364.80;;;-4.19;67.89
76553;BME280;65395;53.168;18.156;2024-01-16T02:04:04;99381.52;;;-4.19;67.85
76553;BME280;65395;53.168;18.156;2024-01-16T02:06:32;99385.29;;;-4.20;67.55
76553;BME280;65395;53.168;18.156;2024-01-16T02:08:59;99391.36;;;-4.21;67.57
76553;BME280;65395;53.168;18.156;2024-01-16T02:11:26;99391.58;;;-4.20;67.06
76553;BME280;65395;53.168;18.156;2024-01-16T02:13:53;99394.41;;;-4.17;67.13
76553;BME280;65395;53.168;18.156;2024-01-16T02:16:21;99394.34;;;-4.14;67.19
76553;BME280;65395;53.168;18.156;2024-01-16T02:18:49;99396.36;;;-4.12;67.37
76553;BME280;65395;53.168;18.156;2024-01-16T02:21:20;99405.23;;;-4.09;66.91
76553;BME280;65395;53.168;18.156;2024-01-16T02:23:48;99407.30;;;-4.07;67.38
76553;BME280;65395;53.168;18.156;2024-01-16T02:26:15;99407.50;;;-4.07;67.35
76553;BME280;65395;53.168;18.156;2024-01-16T02:28:42;99422.14;;;-4.10;67.02
76553;BME280;65395;53.168;18.156;2024-01-16T02:31:09;99425.27;;;-4.15;67.29
76553;BME280;65395;53.168;18.156;2024-01-16T02:33:36;99432.95;;;-4.20;67.53
76553;BME280;65395;53.168;18.156;2024-01-16T02:36:04;99436.40;;;-4.27;67.45
76553;BME280;65395;53.168;18.156;2024-01-16T02:38:31;99435.69;;;-4.33;67.04
76553;BME280;65395;53.168;18.156;2024-01-16T02:40:59;99434.02;;;-4.38;66.92
76553;BME280;65395;53.168;18.156;2024-01-16T02:43:26;99433.84;;;-4.43;66.65
76553;BME280;65395;53.168;18.156;2024-01-16T02:45:53;99439.51;;;-4.46;66.96
76553;BME280;65395;53.168;18.156;2024-01-16T02:48:20;99440.04;;;-4.49;67.03
76553;BME280;65395;53.168;18.156;2024-01-16T02:50:47;99442.89;;;-4.52;67.20
76553;BME280;65395;53.168;18.156;2024-01-16T02:53:14;99452.45;;;-4.54;67.22
76553;BME280;65395;53.168;18.156;2024-01-16T02:55:42;99451.68;;;-4.56;67.34
76553;BME280;65395;53.168;18.156;2024-01-16T02:58:08;99458.27;;;-4.58;67.26
76553;BME280;65395;53.168;18.156;2024-01-16T03:00:36;99458.63;;;-4.58;67.10
76553;BME280;65395;53.168;18.156;2024-01-16T03:03:03;99456.46;;;-4.56;67.29
76553;BME280;65395;53.168;18.156;2024-01-16T03:05:31;99459.39;;;-4.52;67.54
76553;BME280;65395;53.168;18.156;2024-01-16T03:07:58;99465.76;;;-4.49;67.43
76553;BME280;65395;53.168;18.156;2024-01-16T03:10:25;99465.81;;;-4.47;67.73
76553;BME280;65395;53.168;18.156;2024-01-16T03:12:51;99466.09;;;-4.46;67.77
76553;BME280;65395;53.168;18.156;2024-01-16T03:15:20;99471.64;;;-4.47;67.77
76553;BME280;65395;53.168;18.156;2024-01-16T03:17:48;99476.73;;;-4.48;67.76
76553;BME280;65395;53.168;18.156;2024-01-16T03:20:16;99481.67;;;-4.50;67.03
76553;BME280;65395;53.168;18.156;2024-01-16T03:22:44;99482.21;;;-4.51;67.01
76553;BME280;65395;53.168;18.156;2024-01-16T03:25:11;99483.23;;;-4.54;66.92
76553;BME280;65395;53.168;18.156;2024-01-16T03:27:38;99482.02;;;-4.56;67.32
76553;BME280;65395;53.168;18.156;2024-01-16T03:30:06;99480.55;;;-4.59;67.49
76553;BME280;65395;53.168;18.156;2024-01-16T03:32:36;99487.33;;;-4.63;67.58
76553;BME280;65395;53.168;18.156;2024-01-16T03:35:03;99493.77;;;-4.67;67.56
76553;BME280;65395;53.168;18.156;2024-01-16T03:37:31;99492.21;;;-4.69;67.81
76553;BME280;65395;53.168;18.156;2024-01-16T03:39:58;99490.96;;;-4.71;67.63
76553;BME280;65395;53.168;18.156;2024-01-16T03:42:25;99490.64;;;-4.73;67.79
76553;BME280;65395;53.168;18.156;2024-01-16T03:44:52;99493.64;;;-4.76;67.89
76553;BME280;65395;53.168;18.156;2024-01-16T03:47:18;99495.00;;;-4.77;68.07
76553;BME280;65395;53.168;18.156;2024-01-16T03:49:45;99495.48;;;-4.79;68.16
76553;BME280;65395;53.168;18.156;2024-01-16T03:52:13;99494.98;;;-4.80;68.35
76553;BME280;65395;53.168;18.156;2024-01-16T03:54:39;99501.18;;;-4.83;68.31
76553;BME280;65395;53.168;18.156;2024-01-16T03:57:06;99498.65;;;-4.84;68.41
76553;BME280;65395;53.168;18.156;2024-01-16T03:59:36;99503.43;;;-4.88;68.63
76553;BME280;65395;53.168;18.156;2024-01-16T04:02:04;99509.66;;;-4.93;68.83
76553;BME280;65395;53.168;18.156;2024-01-16T04:04:31;99513.43;;;-4.99;69.02
76553;BME280;65395;53.168;18.156;2024-01-16T04:06:58;99513.64;;;-5.05;69.16
76553;BME280;65395;53.168;18.156;2024-01-16T04:09:24;99514.86;;;-5.11;69.28
76553;BME280;65395;53.168;18.156;2024-01-16T04:11:51;99508.83;;;-5.17;69.38
76553;BME280;65395;53.168;18.156;2024-01-16T04:14:19;99510.60;;;-5.22;69.40
76553;BME280;65395;53.168;18.156;2024-01-16T04:16:46;99509.67;;;-5.26;69.48
76553;BME280;65395;53.168;18.156;2024-01-16T04:19:13;99511.59;;;-5.27;69.42
76553;BME280;65395;53.168;18.156;2024-01-16T04:21:40;99511.60;;;-5.29;69.34
76553;BME280;65395;53.168;18.156;2024-01-16T04:24:07;99515.40;;;-5.29;69.33
76553;BME280;65395;53.168;18.156;2024-01-16T04:26:36;99519.33;;;-5.31;69.36
76553;BME280;65395;53.168;18.156;2024-01-16T04:29:04;99522.55;;;-5.33;69.28
76553;BME280;65395;53.168;18.156;2024-01-16T04:31:32;99528.80;;;-5.35;69.38
76553;BME280;65395;53.168;18.156;2024-01-16T04:34:05;99537.29;;;-5.40;69.48
76553;BME280;65395;53.168;18.156;2024-01-16T04:36:32;99539.57;;;-5.44;69.45
76553;BME280;65395;53.168;18.156;2024-01-16T04:38:59;99541.50;;;-5.48;69.54
76553;BME280;65395;53.168;18.156;2024-01-16T04:41:26;99551.08;;;-5.53;69.62
76553;BME280;65395;53.168;18.156;2024-01-16T04:43:53;99558.17;;;-5.58;69.74
76553;BME280;65395;53.168;18.156;2024-01-16T04:46:20;99555.24;;;-5.62;69.84
76553;BME280;65395;53.168;18.156;2024-01-16T04:48:47;99548.09;;;-5.68;69.94
76553;BME280;65395;53.168;18.156;2024-01-16T04:51:14;99542.88;;;-5.73;69.99
76553;BME280;65395;53.168;18.156;2024-01-16T04:53:41;99551.02;;;-5.80;70.21
76553;BME280;65395;53.168;18.156;2024-01-16T04:56:08;99561.02;;;-5.87;70.23
76553;BME280;65395;53.168;18.156;2024-01-16T04:58:35;99567.27;;;-5.94;70.42
76553;BME280;65395;53.168;18.156;2024-01-16T05:01:02;99568.41;;;-5.97;70.54
76553;BME280;65395;53.168;18.156;2024-01-16T05:03:29;99565.55;;;-6.01;70.60
76553;BME280;65395;53.168;18.156;2024-01-16T05:05:56;99576.14;;;-6.05;70.66
76553;BME280;65395;53.168;18.156;2024-01-16T05:08:23;99581.45;;;-6.09;70.98
76553;BME280;65395;53.168;18.156;2024-01-16T05:10:50;99588.13;;;-6.11;71.01
76553;BME280;65395;53.168;18.156;2024-01-16T05:13:17;99590.89;;;-6.15;71.03
76553;BME280;65395;53.168;18.156;2024-01-16T05:15:44;99592.14;;;-6.19;71.07
76553;BME280;65395;53.168;18.156;2024-01-16T05:18:11;99596.24;;;-6.22;71.22
76553;BME280;65395;53.168;18.156;2024-01-16T05:20:38;99597.80;;;-6.25;71.25
76553;BME280;65395;53.168;18.156;2024-01-16T05:23:05;99597.37;;;-6.30;71.26
76553;BME280;65395;53.168;18.156;2024-01-16T05:25:32;99597.16;;;-6.35;71.31
76553;BME280;65395;53.168;18.156;2024-01-16T05:27:59;99607.58;;;-6.43;71.39
76553;BME280;65395;53.168;18.156;2024-01-16T05:30:27;99610.77;;;-6.56;71.47
76553;BME280;65395;53.168;18.156;2024-01-16T05:32:55;99615.55;;;-6.63;71.86
76553;BME280;65395;53.168;18.156;2024-01-16T05:35:22;99615.01;;;-6.70;71.86
76553;BME280;65395;53.168;18.156;2024-01-16T05:37:49;99617.77;;;-6.77;72.08
76553;BME280;65395;53.168;18.156;2024-01-16T05:40:15;99624.03;;;-6.85;72.21
76553;BME280;65395;53.168;18.156;2024-01-16T05:42:42;99624.94;;;-6.93;72.33
76553;BME280;65395;53.168;18.156;2024-01-16T05:45:09;99634.74;;;-7.02;72.50
76553;BME280;65395;53.168;18.156;2024-01-16T05:47:36;99637.19;;;-7.10;72.67
76553;BME280;65395;53.168;18.156;2024-01-16T05:50:03;99640.58;;;-7.18;72.87
76553;BME280;65395;53.168;18.156;2024-01-16T05:52:30;99641.64;;;-7.26;72.93
76553;BME280;65395;53.168;18.156;2024-01-16T05:54:57;99646.33;;;-7.35;72.94
76553;BME280;65395;53.168;18.156;2024-01-16T05:57:26;99650.48;;;-7.42;73.47
76553;BME280;65395;53.168;18.156;2024-01-16T05:59:53;99653.82;;;-7.48;73.34
76553;BME280;65395;53.168;18.156;2024-01-16T06:02:20;99655.89;;;-7.55;73.35
76553;BME280;65395;53.168;18.156;2024-01-16T06:04:47;99658.38;;;-7.61;73.48
76553;BME280;65395;53.168;18.156;2024-01-16T06:07:14;99667.36;;;-7.67;73.69
76553;BME280;65395;53.168;18.156;2024-01-16T06:09:41;99673.48;;;-7.72;74.10
76553;BME280;65395;53.168;18.156;2024-01-16T06:12:08;99667.98;;;-7.71;74.35
76553;BME280;65395;53.168;18.156;2024-01-16T06:14:35;99670.81;;;-7.73;74.10
76553;BME280;65395;53.168;18.156;2024-01-16T06:17:02;99670.05;;;-7.77;74.35
76553;BME280;65395;53.168;18.156;2024-01-16T06:19:30;99679.34;;;-7.77;74.24
76553;BME280;65395;53.168;18.156;2024-01-16T06:21:57;99687.02;;;-7.81;74.23
76553;BME280;65395;53.168;18.156;2024-01-16T06:24:24;99690.54;;;-7.87;74.22
76553;BME280;65395;53.168;18.156;2024-01-16T06:26:51;99697.40;;;-7.93;74.51
76553;BME280;65395;53.168;18.156;2024-01-16T06:29:18;99704.13;;;-7.99;74.46
76553;BME280;65395;53.168;18.156;2024-01-16T06:31:45;99707.13;;;-8.05;74.60
76553;BME280;65395;53.168;18.156;2024-01-16T06:34:12;99709.27;;;-8.10;74.86
76553;BME280;65395;53.168;18.156;2024-01-16T06:36:39;99706.10;;;-8.18;74.90
76553;BME280;65395;53.168;18.156;2024-01-16T06:39:06;99710.45;;;-8.20;75.45
76553;BME280;65395;53.168;18.156;2024-01-16T06:41:33;99716.65;;;-8.23;75.28
76553;BME280;65395;53.168;18.156;2024-01-16T06:44:00;99716.73;;;-8.26;75.04
76553;BME280;65395;53.168;18.156;2024-01-16T06:46:27;99712.85;;;-8.29;75.52
76553;BME280;65395;53.168;18.156;2024-01-16T06:48:54;99713.52;;;-8.29;75.65
76553;BME280;65395;53.168;18.156;2024-01-16T06:51:21;99722.30;;;-8.29;75.91
76553;BME280;65395;53.168;18.156;2024-01-16T06:53:47;99723.39;;;-8.26;76.18
76553;BME280;65395;53.168;18.156;2024-01-16T06:56:14;99720.77;;;-8.23;76.59
76553;BME280;65395;53.168;18.156;2024-01-16T06:58:41;99723.91;;;-8.19;76.79
76553;BME280;65395;53.168;18.156;2024-01-16T07:01:09;99728.93;;;-8.14;76.91
76553;BME280;65395;53.168;18.156;2024-01-16T07:03:36;99734.55;;;-8.09;76.99
76553;BME280;65395;53.168;18.156;2024-01-16T07:06:04;99733.10;;;-8.07;76.83
76553;BME280;65395;53.168;18.156;2024-01-16T07:08:31;99738.58;;;-8.05;76.92
76553;BME280;65395;53.168;18.156;2024-01-16T07:10:58;99747.46;;;-8.02;77.17
76553;BME280;65395;53.168;18.156;2024-01-16T07:13:25;99749.77;;;-7.98;77.29
76553;BME280;65395;53.168;18.156;2024-01-16T07:15:52;99754.45;;;-7.90;77.68
76553;BME280;65395;53.168;18.156;2024-01-16T07:18:19;99761.98;;;-7.82;77.59
76553;BME280;65395;53.168;18.156;2024-01-16T07:20:46;99766.87;;;-7.75;77.55
76553;BME280;65395;53.168;18.156;2024-01-16T07:23:13;99774.38;;;-7.68;77.51
76553;BME280;65395;53.168;18.156;2024-01-16T07:25:40;99777.41;;;-7.59;77.33
76553;BME280;65395;53.168;18.156;2024-01-16T07:28:07;99780.88;;;-7.52;77.38
76553;BME280;65395;53.168;18.156;2024-01-16T07:30:35;99785.30;;;-7.42;77.59
76553;BME280;65395;53.168;18.156;2024-01-16T07:33:03;99787.75;;;-7.32;77.40
76553;BME280;65395;53.168;18.156;2024-01-16T07:35:30;99794.88;;;-7.22;77.45
76553;BME280;65395;53.168;18.156;2024-01-16T07:37:57;99800.00;;;-7.11;77.26
76553;BME280;65395;53.168;18.156;2024-01-16T07:40:24;99800.14;;;-7.00;77.33
76553;BME280;65395;53.168;18.156;2024-01-16T07:42:52;99802.27;;;-6.90;77.16
76553;BME280;65395;53.168;18.156;2024-01-16T07:45:19;99805.02;;;-6.79;77.10
76553;BME280;65395;53.168;18.156;2024-01-16T07:47:46;99806.14;;;-6.69;76.97
76553;BME280;65395;53.168;18.156;2024-01-16T07:50:13;99809.63;;;-6.62;76.67
76553;BME280;65395;53.168;18.156;2024-01-16T07:52:41;99817.14;;;-6.53;76.63
76553;BME280;65395;53.168;18.156;2024-01-16T07:55:08;99818.58;;;-6.44;76.39
76553;BME280;65395;53.168;18.156;2024-01-16T07:57:35;99816.25;;;-6.37;76.14
76553;BME280;65395;53.168;18.156;2024-01-16T08:00:02;99816.60;;;-6.29;76.13
76553;BME280;65395;53.168;18.156;2024-01-16T08:02:32;99827.98;;;-6.22;75.86
76553;BME280;65395;53.168;18.156;2024-01-16T08:05:00;99833.98;;;-6.14;75.84
76553;BME280;65395;53.168;18.156;2024-01-16T08:07:27;99833.78;;;-6.07;75.57
76553;BME280;65395;53.168;18.156;2024-01-16T08:09:54;99838.08;;;-6.00;75.44
76553;BME280;65395;53.168;18.156;2024-01-16T08:12:21;99843.96;;;-5.94;75.19
76553;BME280;65395;53.168;18.156;2024-01-16T08:14:48;99846.45;;;-5.88;75.05
76553;BME280;65395;53.168;18.156;2024-01-16T08:17:16;99847.38;;;-5.83;74.69
76553;BME280;65395;53.168;18.156;2024-01-16T08:19:42;99855.10;;;-5.77;74.53
76553;BME280;65395;53.168;18.156;2024-01-16T08:22:09;99860.58;;;-5.72;74.18
76553;BME280;65395;53.168;18.156;2024-01-16T08:24:36;99865.27;;;-5.65;74.07
76553;BME280;65395;53.168;18.156;2024-01-16T08:27:04;99866.27;;;-5.58;73.99
76553;BME280;65395;53.168;18.156;2024-01-16T08:29:31;99867.11;;;-5.53;73.79
76553;BME280;65395;53.168;18.156;2024-01-16T08:31:58;99876.43;;;-5.47;73.44
76553;BME280;65395;53.168;18.156;2024-01-16T08:34:25;99878.00;;;-5.40;73.34
76553;BME280;65395;53.168;18.156;2024-01-16T08:36:52;99875.11;;;-5.34;73.29
76553;BME280;65395;53.168;18.156;2024-01-16T08:39:23;99875.17;;;-5.28;72.97
76553;BME280;65395;53.168;18.156;2024-01-16T08:41:51;99880.48;;;-5.20;72.42
76553;BME280;65395;53.168;18.156;2024-01-16T08:44:18;99881.85;;;-5.14;71.98
76553;BME280;65395;53.168;18.156;2024-01-16T08:46:45;99891.84;;;-5.08;72.14
76553;BME280;65395;53.168;18.156;2024-01-16T08:49:12;99900.63;;;-5.02;71.85
76553;BME280;65395;53.168;18.156;2024-01-16T08:51:40;99898.27;;;-4.95;71.77
76553;BME280;65395;53.168;18.156;2024-01-16T08:54:07;99900.78;;;-4.87;71.20
76553;BME280;65395;53.168;18.156;2024-01-16T08:56:34;99902.05;;;-4.78;70.14
76553;BME280;65395;53.168;18.156;2024-01-16T08:59:01;99905.42;;;-4.70;69.99
76553;BME280;65395;53.168;18.156;2024-01-16T09:01:28;99905.78;;;-4.61;69.45
76553;BME280;65395;53.168;18.156;2024-01-16T09:03:55;99909.23;;;-4.54;69.66
76553;BME280;65395;53.168;18.156;2024-01-16T09:06:23;99909.52;;;-4.47;68.05
76553;BME280;65395;53.168;18.156;2024-01-16T09:08:49;99912.48;;;-4.40;69.14
76553;BME280;65395;53.168;18.156;2024-01-16T09:11:16;99913.20;;;-4.33;69.32
76553;BME280;65395;53.168;18.156;2024-01-16T09:13:43;99924.40;;;-4.24;68.83
76553;BME280;65395;53.168;18.156;2024-01-16T09:16:10;99929.21;;;-4.16;68.22
76553;BME280;65395;53.168;18.156;2024-01-16T09:18:37;99937.98;;;-4.09;68.11
76553;BME280;65395;53.168;18.156;2024-01-16T09:21:04;99935.48;;;-4.05;67.72
76553;BME280;65395;53.168;18.156;2024-01-16T09:23:31;99939.11;;;-4.04;67.92
76553;BME280;65395;53.168;18.156;2024-01-16T09:25:58;99942.88;;;-4.02;68.49
76553;BME280;65395;53.168;18.156;2024-01-16T09:28:25;99948.60;;;-3.99;67.93
76553;BME280;65395;53.168;18.156;2024-01-16T09:30:55;99946.41;;;-4.00;67.82
76553;BME280;65395;53.168;18.156;2024-01-16T09:33:23;99945.73;;;-4.04;67.88
76553;BME280;65395;53.168;18.156;2024-01-16T09:35:52;99955.34;;;-4.07;68.01
76553;BME280;65395;53.168;18.156;2024-01-16T09:38:19;99958.52;;;-4.11;68.21
76553;BME280;65395;53.168;18.156;2024-01-16T09:40:46;99959.71;;;-4.13;67.91
76553;BME280;65395;53.168;18.156;2024-01-16T09:43:14;99953.85;;;-4.18;68.03
76553;BME280;65395;53.168;18.156;2024-01-16T09:45:41;99958.07;;;-4.21;67.58
76553;BME280;65395;53.168;18.156;2024-01-16T09:48:09;99960.41;;;-4.23;68.02
76553;BME280;65395;53.168;18.156;2024-01-16T09:50:37;99964.95;;;-4.25;68.21
76553;BME280;65395;53.168;18.156;2024-01-16T09:53:04;99966.63;;;-4.27;67.54
76553;BME280;65395;53.168;18.156;2024-01-16T09:55:31;99972.01;;;-4.25;67.78
76553;BME280;65395;53.168;18.156;2024-01-16T09:57:59;99977.66;;;-4.23;68.00
76553;BME280;65395;53.168;18.156;2024-01-16T10:00:27;99985.27;;;-4.18;68.02
76553;BME280;65395;53.168;18.156;2024-01-16T10:02:55;99985.25;;;-4.13;67.61
76553;BME280;65395;53.168;18.156;2024-01-16T10:05:25;99985.10;;;-4.07;67.84
76553;BME280;65395;53.168;18.156;2024-01-16T10:07:52;99990.61;;;-3.99;67.62
76553;BME280;65395;53.168;18.156;2024-01-16T10:10:20;99992.98;;;-3.93;67.06
76553;BME280;65395;53.168;18.156;2024-01-16T10:12:49;99999.30;;;-3.88;67.83
76553;BME280;65395;53.168;18.156;2024-01-16T10:15:19;99997.67;;;-3.81;68.48
76553;BME280;65395;53.168;18.156;2024-01-16T10:17:47;100000.14;;;-3.77;68.76
76553;BME280;65395;53.168;18.156;2024-01-16T10:20:14;100000.95;;;-3.73;68.54
76553;BME280;65395;53.168;18.156;2024-01-16T10:22:53;100009.48;;;-3.67;68.66
76553;BME280;65395;53.168;18.156;2024-01-16T10:25:20;100017.33;;;-3.62;67.69
76553;BME280;65395;53.168;18.156;2024-01-16T10:27:49;100011.73;;;-3.57;67.26
76553;BME280;65395;53.168;18.156;2024-01-16T10:30:21;100016.94;;;-3.52;67.00
76553;BME280;65395;53.168;18.156;2024-01-16T10:32:49;100018.30;;;-3.48;67.12
76553;BME280;65395;53.168;18.156;2024-01-16T10:35:17;100016.28;;;-3.47;67.08
76553;BME280;65395;53.168;18.156;2024-01-16T10:37:47;100021.48;;;-3.45;67.11
76553;BME280;65395;53.168;18.156;2024-01-16T10:40:15;100018.35;;;-3.41;67.39
76553;BME280;65395;53.168;18.156;2024-01-16T10:42:43;100017.95;;;-3.32;67.39
76553;BME280;65395;53.168;18.156;2024-01-16T10:45:17;100014.39;;;-3.20;68.03
76553;BME280;65395;53.168;18.156;2024-01-16T10:47:47;100017.20;;;-3.10;66.54
76553;BME280;65395;53.168;18.156;2024-01-16T10:50:14;100016.25;;;-3.06;67.25
76553;BME280;65395;53.168;18.156;2024-01-16T10:52:47;100021.42;;;-3.03;67.10
76553;BME280;65395;53.168;18.156;2024-01-16T10:55:21;100021.59;;;-3.04;66.36
76553;BME280;65395;53.168;18.156;2024-01-16T10:57:50;100021.34;;;-3.07;66.13
76553;BME280;65395;53.168;18.156;2024-01-16T11:00:20;100023.09;;;-3.02;66.54
76553;BME280;65395;53.168;18.156;2024-01-16T11:02:54;100030.69;;;-2.96;66.31
76553;BME280;65395;53.168;18.156;2024-01-16T11:05:24;100021.94;;;-2.91;66.19
76553;BME280;65395;53.168;18.156;2024-01-16T11:07:54;100021.48;;;-2.87;65.51
76553;BME280;65395;53.168;18.156;2024-01-16T11:10:23;100026.77;;;-2.86;65.24
76553;BME280;65395;53.168;18.156;2024-01-16T11:12:52;100023.82;;;-2.87;64.89
76553;BME280;65395;53.168;18.156;2024-01-16T11:15:19;100024.65;;;-2.86;65.41
76553;BME280;65395;53.168;18.156;2024-01-16T11:17:46;100029.88;;;-2.82;66.13
76553;BME280;65395;53.168;18.156;2024-01-16T11:20:14;100030.48;;;-2.78;65.88
76553;BME280;65395;53.168;18.156;2024-01-16T11:22:43;100032.73;;;-2.73;66.14
76553;BME280;65395;53.168;18.156;2024-01-16T11:25:13;100034.85;;;-2.71;65.91
76553;BME280;65395;53.168;18.156;2024-01-16T11:27:42;100038.20;;;-2.73;65.86
76553;BME280;65395;53.168;18.156;2024-01-16T11:30:11;100042.14;;;-2.79;65.36
76553;BME280;65395;53.168;18.156;2024-01-16T11:32:39;100040.34;;;-2.85;65.28
76553;BME280;65395;53.168;18.156;2024-01-16T11:35:08;100044.16;;;-2.86;65.06
76553;BME280;65395;53.168;18.156;2024-01-16T11:37:36;100043.94;;;-2.88;65.49
76553;BME280;65395;53.168;18.156;2024-01-16T11:40:21;100053.02;;;-2.93;64.48
76553;BME280;65395;53.168;18.156;2024-01-16T11:42:50;100051.64;;;-2.98;64.88
76553;BME280;65395;53.168;18.156;2024-01-16T11:48:15;100057.04;;;-2.88;64.73
76553;BME280;65395;53.168;18.156;2024-01-16T11:50:43;100059.84;;;-2.83;64.89
76553;BME280;65395;53.168;18.156;2024-01-16T11:53:10;100055.59;;;-2.83;64.42
76553;BME280;65395;53.168;18.156;2024-01-16T11:58:41;100055.05;;;-2.88;64.52
76553;BME280;65395;53.168;18.156;2024-01-16T12:01:12;100055.00;;;-2.84;64.09
76553;BME280;65395;53.168;18.156;2024-01-16T12:03:39;100056.98;;;-2.75;64.66
76553;BME280;65395;53.168;18.156;2024-01-16T12:06:06;100055.73;;;-2.63;64.66
76553;BME280;65395;53.168;18.156;2024-01-16T12:08:35;100060.67;;;-2.51;64.32
76553;BME280;65395;53.168;18.156;2024-01-16T12:11:04;100064.27;;;-2.45;64.00
76553;BME280;65395;53.168;18.156;2024-01-16T12:13:31;100064.11;;;-2.45;63.26
76553;BME280;65395;53.168;18.156;2024-01-16T12:16:00;100056.30;;;-2.52;63.96
76553;BME280;65395;53.168;18.156;2024-01-16T12:18:28;100061.70;;;-2.42;64.77
76553;BME280;65395;53.168;18.156;2024-01-16T12:20:55;100064.52;;;-2.33;64.45
76553;BME280;65395;53.168;18.156;2024-01-16T12:23:22;100064.69;;;-2.27;64.36
76553;BME280;65395;53.168;18.156;2024-01-16T12:25:52;100069.20;;;-2.31;63.53
76553;BME280;65395;53.168;18.156;2024-01-16T12:28:21;100067.95;;;-2.39;63.90
76553;BME280;65395;53.168;18.156;2024-01-16T12:30:50;100069.95;;;-2.40;63.38
76553;BME280;65395;53.168;18.156;2024-01-16T12:33:22;100070.77;;;-2.53;63.20
76553;BME280;65395;53.168;18.156;2024-01-16T12:35:49;100072.01;;;-2.64;63.12
76553;BME280;65395;53.168;18.156;2024-01-16T12:38:17;100068.67;;;-2.60;63.19
76553;BME280;65395;53.168;18.156;2024-01-16T12:40:51;100066.75;;;-2.51;63.39
76553;BME280;65395;53.168;18.156;2024-01-16T12:43:19;100069.02;;;-2.44;63.05
76553;BME280;65395;53.168;18.156;2024-01-16T12:45:46;100073.29;;;-2.38;63.56
76553;BME280;65395;53.168;18.156;2024-01-16T12:48:13;100079.56;;;-2.30;63.02
76553;BME280;65395;53.168;18.156;2024-01-16T12:50:40;100087.77;;;-2.22;62.73
76553;BME280;65395;53.168;18.156;2024-01-16T12:53:09;100090.74;;;-2.18;62.24
76553;BME280;65395;53.168;18.156;2024-01-16T12:55:38;100091.23;;;-2.15;62.69